Tiempo atmosférico en la estación meteorológica de Osuna, Sevilla (255 m.)



Fecha
DESCASC
Temp. máxima en grados centígrados (hora)
DESCASC
Temp. mínima en grados centígrados (hora)
DESCASC
Temp. media en grados centígrados
DESCASC
Racha de viento máxima en m/sg (hora)
DESCASC
Velocidad máxima media en intervalos de 10 minutos(hora)
DESCASC
Precipitaciones diarias en mm
DESCASC
Precipitaciones de 00:00 a 06:00 en mm
DESCASC
Precipitaciones de 06:00 a 12:00 en mm
DESCASC
Precipitaciones de 12:00 a 18:00 en mm
DESCASC
Precipitaciones de 18:00 a 24:00 en mm
DESCASC
22-11-2020 18.3 (14:50) 12.6 (23:59) 15.4 12.5 (10:50) 6.67 (02:00) 0 0 0 0 0
21-11-2020 19.2 (14:20) 15 (23:50) 17.1 13.89 (14:50) 8.33 (14:20) 0 0 0 0 0
20-11-2020 22.6 (16:30) 14.6 (08:10) 18.6 8.61 (23:50) 5 (23:50) 0 0 0 0 0
19-11-2020 23.4 (15:20) 15.4 (00:00) 19.4 11.39 (11:50) 6.11 (10:10) 0 0 0 0 0
18-11-2020 24.5 (15:20) 16.6 (00:00) 20.6 8.06 (16:30) 5.28 (17:50) 0 0 0 0 0
17-11-2020 23.9 (15:50) 15.7 (00:00) 19.8 8.06 (09:30) 4.72 (09:20) 0 0 0 0 0
16-11-2020 22.6 (15:20) 15.7 (00:00) 19.2 5 (15:40) 3.06 (16:00) 0 0 0 0 0
15-11-2020 25.1 (16:50) 15.7 (00:00) 20.4 6.39 (03:50) 4.17 (08:30) 0 0 0 0 0
14-11-2020 19.8 (15:40) 16.3 (00:00) 18 7.78 (15:50) 5.28 (15:50) 0.4 0.2 0.2 0 0
13-11-2020 22.5 (15:20) 15.3 (00:00) 18.9 8.06 (03:40) 4.17 (05:40) 0 0 0 0 0
12-11-2020 20.9 (15:20) 14.3 (00:00) 17.6 13.33 (10:50) 6.11 (11:40) 0 0 0 0 0
11-11-2020 20.6 (15:50) 14.9 (00:00) 17.8 14.72 (11:40) 8.33 (11:20) 0 0 0 0 0
10-11-2020 20.2 (16:20) 11.4 (00:00) 15.8 5.83 (21:30) 3.61 (20:40) 0 0 0 0 0
09-11-2020 19 (16:50) 13.8 (00:00) 16.4 4.72 (11:50) 2.78 (04:50) 0 0 0 0 0
08-11-2020 21.4 (14:40) 13.3 (00:00) 17.3 5.28 (04:50) 3.06 (04:40) 0 0 0 0 0
07-11-2020 20.2 (16:30) 13.6 (00:00) 16.9 11.67 (02:30) 6.67 (02:30) 6 4.6 1.4 0 0
06-11-2020 25.7 (15:10) 15.4 (00:00) 20.6 16.67 (13:00) 9.17 (13:30) 2.2 0 0 0 2.2
05-11-2020 19.4 (16:40) 14 (00:00) 16.7 14.17 (17:50) 6.94 (17:00) 39.8 19.6 5.6 14.6 0
04-11-2020 20.1 (15:20) 15.5 (00:00) 17.8 14.17 (22:40) 7.22 (21:50) 0 0 0 0 0
03-11-2020 25 (15:40) 13.8 (00:00) 19.4 5.28 (16:40) 3.33 (16:40) 0 0 0 0 0
02-11-2020 29 (14:50) 17.9 (00:00) 23.4 7.22 (07:10) 4.44 (06:10) 0 0 0 0 0
01-11-2020 26.6 (16:30) 13.2 (00:00) 19.9 4.44 (15:10) 2.78 (06:30) 0 0 0 0 0
31-10-2020 25.9 (15:30) 15.7 (00:00) 20.8 7.5 (05:20) 4.44 (05:20) 0 0 0 0 0
30-10-2020 25.8 (14:50) 16.6 (00:00) 21.2 16.11 (11:50) 7.22 (11:10) 0 0 0 0 0
29-10-2020 26.2 (15:10) 14.4 (00:00) 20.3 10.28 (20:40) 5.56 (14:50) 0 0 0 0 0
28-10-2020 20.6 (16:40) 10.4 (00:00) 15.5 5.28 (12:10) 2.78 (13:00) 0 0 0 0 0
27-10-2020 18.7 (16:10) 9.6 (00:00) 14.2 5 (16:40) 2.22 (17:20) 0 0 0 0 0

Gráficas

Temp. máximas Temp. mínimas Temp. medias Precipitaciones Rachas de viento máximas Velocidades máximas media en intervalos de 10 minutos

Datos horarios

Fecha y hora oficial Temperatura (ºC) Velocidad del viento (km/h) Dirección del viento Racha (km/h) Dirección de racha Precipitación (mm) Presión (hPa) Tendencia (hPa) Humedad (%)
2020-11-25 23:00:00 12.4 11 Sudeste 27 Sudeste 0.6 -- -- 88
2020-11-25 22:00:00 12 6 Sudeste 19 Este 0.8 -- -- 88
2020-11-25 21:00:00 12.3 6 Sudeste 33 Sudeste 3.2 -- -- 87
2020-11-25 20:00:00 12.7 12 Sudeste 27 Sudeste 0 -- -- 84
2020-11-25 19:00:00 12.6 13 Sudeste 29 Sudeste 0.4 -- -- 86
2020-11-25 18:00:00 12.5 6 Sur 27 Sudoeste 5.2 -- -- 88
2020-11-25 17:00:00 13.3 12 Sudoeste 22 Sudoeste 1.6 -- -- 84
2020-11-25 16:00:00 13.4 8 Sur 18 Sudoeste 0.8 -- -- 83
2020-11-25 15:00:00 12.9 11 Sudoeste 33 Oeste 0.6 -- -- 84
2020-11-25 14:00:00 14 28 Oeste 64 Oeste 0.2 -- -- 78
2020-11-25 13:00:00 20.2 19 Sudoeste 30 Sur 0 -- -- 49
2020-11-25 12:00:00 18 10 Sudoeste 28 Sudeste 0 -- -- 62
2020-11-25 11:00:00 17 11 Sur 25 Sudeste 0 -- -- 65
2020-11-25 10:00:00 15.1 12 Sudeste 24 Sur 0 -- -- 70
2020-11-25 09:00:00 13.7 10 Sudeste 19 Sudeste 0 -- -- 73
2020-11-25 08:00:00 13.2 8 Sudeste 14 Sudeste 0 -- -- 73
2020-11-25 07:00:00 12.9 8 Sudeste 12 Sudeste 0 -- -- 80
2020-11-25 06:00:00 13 5 Sur 12 Sur 0 -- -- 81
2020-11-25 05:00:00 13.2 6 Sur 10 Sur 0 -- -- 82
2020-11-25 04:00:00 13.7 5 Sudoeste 13 Sudoeste 0 -- -- 80
2020-11-25 03:00:00 14.2 5 Sudoeste 11 Sur 0 -- -- 77
2020-11-25 02:00:00 14.2 6 Sur 16 Sudoeste 0 -- -- 77
2020-11-25 01:00:00 14.2 8 Sudoeste 15 Sudoeste 0 -- -- 77
2020-11-25 00:00:00 14.8 5 Sur 12 Sudoeste 0 -- -- 71
2020-11-24 23:00:00 15.1 4 Sudoeste 10 Sudoeste 0 -- -- 66
2020-11-24 22:00:00 15.5 3 Sur 10 Sudeste 0 -- -- 64
2020-11-24 21:00:00 15.4 6 Sudeste 18 Sudeste 0 -- -- 65
2020-11-24 20:00:00 15.4 8 Sudeste 15 Sudeste 0 -- -- 58
2020-11-24 19:00:00 15.7 6 Sudeste 10 Sudeste 0 -- -- 55
2020-11-24 18:00:00 17.1 3 Este 9 Noroeste 0 -- -- 51
2020-11-24 17:00:00 18.5 4 Norte 12 Noroeste 0 -- -- 47
2020-11-24 16:00:00 18.8 3 Norte 11 Noroeste 0 -- -- 47
2020-11-24 15:00:00 18.5 5 Noroeste 13 Nordeste 0 -- -- 49
2020-11-24 14:00:00 17.9 5 Norte 14 Norte 0 -- -- 52
2020-11-24 13:00:00 17.1 5 Noroeste 10 Noroeste 0 -- -- 53
2020-11-24 12:00:00 15.5 6 Noroeste 9 Noroeste 0 -- -- 61
2020-11-24 11:00:00 13.9 4 Oeste 6 Oeste 0 -- -- 66
2020-11-24 10:00:00 11.9 0 Calma 4 Sudeste 0 -- -- 70
2020-11-24 09:00:00 11.9 3 Sudeste 10 Sudeste 0 -- -- 69
2020-11-24 08:00:00 11.8 7 Sudeste 18 Sudeste 0 -- -- 69
2020-11-24 07:00:00 12 11 Sudeste 23 Sudeste 0 -- -- 68
2020-11-24 06:00:00 11.8 10 Sudeste 22 Sudeste 0 -- -- 68
2020-11-24 05:00:00 11.9 12 Sudeste 28 Sur 0 -- -- 66
2020-11-24 04:00:00 12.1 10 Sudeste 21 Sudeste 0 -- -- 67
2020-11-24 03:00:00 12.2 14 Sudeste 25 Sudeste 0 -- -- 67
2020-11-24 02:00:00 12.4 14 Sudeste 27 Sudeste 0 -- -- 67
2020-11-24 01:00:00 12.4 15 Sudeste 28 Sudeste 0 -- -- 66
2020-11-24 00:00:00 12.6 18 Sudeste 32 Este 0 -- -- 67
2020-11-23 23:00:00 12.8 14 Sudeste 29 Sudeste 0 -- -- 61
2020-11-23 22:00:00 12.9 16 Sudeste 28 Este 0 -- -- 62
2020-11-23 21:00:00 13.2 16 Sudeste 33 Sudeste 0 -- -- 60
2020-11-23 20:00:00 13.6 15 Sudeste 36 Sudeste 0 -- -- 57
2020-11-23 19:00:00 14.4 19 Sudeste 32 Sudeste 0 -- -- 48
2020-11-23 18:00:00 15.7 17 Sudeste 34 Sudeste 0 -- -- 46
2020-11-23 17:00:00 17.6 16 Sudeste 35 Sudeste 0 -- -- 46
2020-11-23 16:00:00 18.9 19 Sudeste 33 Sudeste 0 -- -- 46
2020-11-23 15:00:00 18.7 17 Sudeste 30 Sudeste 0 -- -- 46
2020-11-23 14:00:00 18.1 15 Sudeste 27 Sudeste 0 -- -- 47
2020-11-23 13:00:00 17.5 13 Sur 27 Sudeste 0 -- -- 50
2020-11-23 12:00:00 16.6 14 Sudeste 28 Sur 0 -- -- 55
2020-11-23 11:00:00 15.6 15 Sudeste 32 Sudeste 0 -- -- 57
2020-11-23 10:00:00 14.3 15 Sudeste 31 Sur 0 -- -- 63
2020-11-23 09:00:00 12.8 17 Sudeste 30 Este 0 -- -- 68
2020-11-23 08:00:00 12.1 13 Este 26 Este 0 -- -- 71
2020-11-23 07:00:00 11.7 10 Este 28 Sudeste 0 -- -- 72
2020-11-23 06:00:00 11.7 14 Sudeste 27 Este 0 -- -- 74
2020-11-23 05:00:00 12.3 13 Sudeste 26 Sudeste 0 -- -- 71
2020-11-23 04:00:00 12.1 9 Sudeste 21 Sudeste 0 -- -- 72
2020-11-23 03:00:00 12.3 11 Sudeste 26 Sudeste 0 -- -- 72
2020-11-23 02:00:00 12.2 13 Sudeste 29 Sudeste 0 -- -- 74
2020-11-23 01:00:00 12.5 14 Sudeste 28 Sudeste 0 -- -- 71
2020-11-23 00:00:00 12.6 12 Sudeste 28 Este 0 -- -- 72
2020-11-22 23:00:00 12.7 14 Sudeste 28 Sudeste 0 -- -- 69
2020-11-22 22:00:00 13.2 14 Sudeste 26 Sudeste 0 -- -- 64
2020-11-22 21:00:00 13.5 10 Sudeste 24 Sudeste 0 -- -- 60
2020-11-22 20:00:00 14 12 Sudeste 26 Sudeste 0 -- -- 58
2020-11-22 19:00:00 14.7 15 Sudeste 28 Sudeste 0 -- -- 58
2020-11-22 18:00:00 16.1 12 Sudeste 29 Sudeste 0 -- -- 50
2020-11-22 17:00:00 17.6 14 Sudeste 28 Sudeste 0 -- -- 46
2020-11-22 16:00:00 18.1 15 Sudeste 32 Sudeste 0 -- -- 46
2020-11-22 15:00:00 18.1 17 Sudeste 32 Sudeste 0 -- -- 45
2020-11-22 14:00:00 18.1 16 Sudeste 33 Sudeste 0 -- -- 48
2020-11-22 13:00:00 17.4 18 Sudeste 38 Sudeste 0 -- -- 52
2020-11-22 12:00:00 16.9 18 Sudeste 42 Sudeste 0 -- -- 56
2020-11-22 11:00:00 16 21 Sudeste 45 Sudeste 0 -- -- 59
2020-11-22 10:00:00 15 19 Sudeste 33 Este 0 -- -- 65
2020-11-22 09:00:00 13.8 17 Sudeste 30 Sudeste 0 -- -- 72
2020-11-22 08:00:00 13.6 19 Sudeste 34 Sudeste 0 -- -- 71
2020-11-22 07:00:00 13.7 19 Sudeste 39 Sudeste 0 -- -- 72
2020-11-22 06:00:00 13.8 18 Sudeste 41 Sudeste 0 -- -- 68
2020-11-22 05:00:00 13.9 16 Sudeste 37 Sudeste 0 -- -- 65
2020-11-22 04:00:00 14.3 19 Sudeste 39 Sudeste 0 -- -- 65
2020-11-22 03:00:00 14.5 20 Sudeste 41 Sudeste 0 -- -- 68
2020-11-22 02:00:00 14.7 24 Sudeste 42 Sudeste 0 -- -- 69
2020-11-22 01:00:00 14.8 18 Sudeste 39 Sudeste 0 -- -- 71
2020-11-22 00:00:00 15 19 Sudeste 35 Sudeste 0 -- -- 70
2020-11-21 23:00:00 15.2 17 Sudeste 38 Sudeste 0 -- -- 70
2020-11-21 22:00:00 15.1 13 Sudeste 36 Sudeste 0 -- -- 71
2020-11-21 21:00:00 15.2 14 Sudeste 32 Sudeste 0 -- -- 69
2020-11-21 20:00:00 15.4 15 Sudeste 33 Sudeste 0 -- -- 69
2020-11-21 19:00:00 15.8 11 Sur 28 Sudeste 0 -- -- 67
2020-11-21 18:00:00 16.9 13 Sur 31 Sudeste 0 -- -- 62
2020-11-21 17:00:00 18 18 Sudeste 40 Sur 0 -- -- 57
2020-11-21 16:00:00 18.6 22 Sur 49 Sudeste 0 -- -- 54
2020-11-21 15:00:00 19.1 22 Sudeste 50 Sudeste 0 -- -- 56
2020-11-21 14:00:00 18.8 26 Sudeste 49 Sudeste 0 -- -- 57
2020-11-21 13:00:00 18.4 25 Sudeste 47 Sudeste 0 -- -- 60
2020-11-21 12:00:00 18.4 23 Sudeste 46 Sudeste 0 -- -- 63
2020-11-21 11:00:00 17.8 25 Sudeste 44 Sudeste 0 -- -- 66
2020-11-21 10:00:00 17.1 16 Sudeste 33 Sudeste 0 -- -- 71
2020-11-21 09:00:00 16 17 Sudeste 34 Sudeste 0 -- -- 76
2020-11-21 08:00:00 15.5 12 Sudeste 29 Sudeste 0 -- -- 76
2020-11-21 07:00:00 15.5 14 Sudeste 29 Sudeste 0 -- -- 75
2020-11-21 06:00:00 15.4 15 Sudeste 32 Sudeste 0 -- -- 75
2020-11-21 05:00:00 15.5 17 Sudeste 40 Sudeste 0 -- -- 74
2020-11-21 04:00:00 15.5 21 Sudeste 40 Sudeste 0 -- -- 74
2020-11-21 03:00:00 15.5 17 Sudeste 40 Sudeste 0 -- -- 75
2020-11-21 02:00:00 15.5 24 Sudeste 38 Sudeste 0 -- -- 76
2020-11-21 01:00:00 15.5 22 Sudeste 39 Sudeste 0 -- -- 75
2020-11-21 00:00:00 15.4 17 Sudeste 31 Este 0 -- -- 74
2020-11-20 23:00:00 15.5 16 Sudeste 26 Sudeste 0 -- -- 72
2020-11-20 22:00:00 16.3 12 Sudeste 24 Sudeste 0 -- -- 69
2020-11-20 21:00:00 16.9 13 Sudeste 22 Sudeste 0 -- -- 66
2020-11-20 20:00:00 18.6 13 Sudeste 20 Sudeste 0 -- -- 57
2020-11-20 19:00:00 20.3 11 Este 18 Este 0 -- -- 28
2020-11-20 18:00:00 21.3 4 Este 14 Este 0 -- -- 40
2020-11-20 17:00:00 22.3 8 Este 18 Este 0 -- -- 46
2020-11-20 16:00:00 22.4 9 Nordeste 20 Nordeste 0 -- -- 45
2020-11-20 15:00:00 22.2 7 Nordeste 17 Nordeste 0 -- -- 50
2020-11-20 14:00:00 21.4 6 Nordeste 17 Nordeste 0 -- -- 55
2020-11-20 13:00:00 20.4 9 Nordeste 19 Nordeste 0 -- -- 57
2020-11-20 12:00:00 20 12 Este 22 Este 0 -- -- 58
2020-11-20 11:00:00 18.5 10 Este 21 Este 0 -- -- 66
2020-11-20 10:00:00 16.9 12 Este 24 Este 0 -- -- 70
2020-11-20 09:00:00 15 16 Sudeste 27 Sudeste 0 -- -- 76
2020-11-20 08:00:00 14.7 17 Sudeste 27 Este 0 -- -- 77
2020-11-20 07:00:00 14.8 13 Este 26 Este 0 -- -- 77
2020-11-20 06:00:00 15.3 14 Este 28 Sudeste 0 -- -- 75
2020-11-20 05:00:00 15.5 15 Sudeste 28 Sudeste 0 -- -- 73
2020-11-20 04:00:00 15.2 13 Sudeste 27 Este 0 -- -- 74
2020-11-20 03:00:00 15.5 12 Sudeste 26 Sudeste 0 -- -- 72
2020-11-20 02:00:00 15.5 17 Sudeste 25 Sudeste 0 -- -- 73
2020-11-20 01:00:00 15.8 17 Sudeste 29 Sudeste 0 -- -- 73
2020-11-20 00:00:00 16 15 Sudeste 25 Sudeste 0 -- -- 72
2020-11-19 23:00:00 16.7 10 Sudeste 24 Sudeste 0 -- -- 69
2020-11-19 22:00:00 16.8 12 Sudeste 25 Sudeste 0 -- -- 68
2020-11-19 21:00:00 16.9 16 Este 27 Este 0 -- -- 68
2020-11-19 20:00:00 17.4 15 Sudeste 27 Sudeste 0 -- -- 65
2020-11-19 19:00:00 18.2 17 Sudeste 28 Sudeste 0 -- -- 64
2020-11-19 18:00:00 19.5 15 Sudeste 27 Sudeste 0 -- -- 60
2020-11-19 17:00:00 21.6 14 Sudeste 30 Sudeste 0 -- -- 55
2020-11-19 16:00:00 23 13 Sudeste 23 Sudeste 0 -- -- 51
2020-11-19 15:00:00 23.1 12 Sudeste 22 Sudeste 0 -- -- 50
2020-11-19 14:00:00 22.2 11 Sudeste 27 Sudeste 0 -- -- 54
2020-11-19 13:00:00 21.6 15 Sudeste 30 Sudeste 0 -- -- 54
2020-11-19 12:00:00 20.6 15 Sudeste 41 Sudeste 0 -- -- 59
2020-11-19 11:00:00 19.2 15 Sudeste 35 Sudeste 0 -- -- 65
2020-11-19 10:00:00 17.3 18 Sudeste 34 Sudeste 0 -- -- 72
2020-11-19 09:00:00 15.8 19 Sudeste 33 Sudeste 0 -- -- 77
2020-11-19 08:00:00 15.6 14 Sudeste 29 Este 0 -- -- 77
2020-11-19 07:00:00 15.5 18 Sudeste 32 Sudeste 0 -- -- 78
2020-11-19 06:00:00 15.7 18 Sudeste 31 Sudeste 0 -- -- 76
2020-11-19 05:00:00 15.7 17 Sudeste 31 Este 0 -- -- 76
2020-11-19 04:00:00 16.1 14 Este 28 Sudeste 0 -- -- 74
2020-11-19 03:00:00 16.6 16 Sudeste 30 Este 0 -- -- 71
2020-11-19 02:00:00 16.4 16 Sudeste 27 Sudeste 0 -- -- 72
2020-11-19 01:00:00 16.6 15 Este 27 Este 0 -- -- 71
2020-11-19 00:00:00 16.9 14 Sudeste 27 Este 0 -- -- 72
2020-11-18 23:00:00 17 7 Este 19 Este 0 -- -- 73
2020-11-18 22:00:00 18.2 12 Este 21 Este 0 -- -- 66
2020-11-18 21:00:00 18.9 9 Este 17 Este 0 -- -- 61
2020-11-18 20:00:00 18.4 12 Sudeste 23 Sudeste 0 -- -- 66
2020-11-18 19:00:00 19 13 Sudeste 26 Sudeste 0 -- -- 66
2020-11-18 18:00:00 20.7 13 Sudeste 28 Sudeste 0 -- -- 60
2020-11-18 17:00:00 22.9 13 Sudeste 29 Sudeste 0 -- -- 52
2020-11-18 16:00:00 24 15 Sudeste 24 Sudeste 0 -- -- 47
2020-11-18 15:00:00 24.4 13 Sudeste 22 Sudeste 0 -- -- 47
2020-11-18 14:00:00 23.9 10 Sudeste 20 Este 0 -- -- 49
2020-11-18 13:00:00 23.1 9 Sudeste 19 Este 0 -- -- 52
2020-11-18 12:00:00 20.9 3 Noroeste 12 Noroeste 0 -- -- 62
2020-11-18 11:00:00 18.9 3 Oeste 21 Sudeste 0 -- -- 71
2020-11-18 10:00:00 18.5 12 Sudeste 26 Sudeste 0 -- -- 66
2020-11-18 09:00:00 17.1 13 Sudeste 23 Sudeste 0 -- -- 70
2020-11-18 08:00:00 16.7 8 Este 16 Sudeste 0 -- -- 70
2020-11-18 07:00:00 16.8 12 Este 20 Sudeste 0 -- -- 74
2020-11-18 06:00:00 17.8 9 Sudeste 18 Este 0 -- -- 72
2020-11-18 05:00:00 17.9 8 Sudeste 14 Sudeste 0 -- -- 72
2020-11-18 04:00:00 18 10 Sudeste 17 Sudeste 0 -- -- 72
2020-11-18 03:00:00 18.1 9 Sudeste 15 Sudeste 0 -- -- 72
2020-11-18 02:00:00 18.1 10 Sudeste 19 Sudeste 0 -- -- 73
2020-11-18 01:00:00 18.3 12 Sudeste 19 Sudeste 0 -- -- 72
2020-11-18 00:00:00 18.4 9 Sudeste 14 Sudeste 0 -- -- 75
2020-11-17 23:00:00 18.4 9 Sudeste 15 Sudeste 0 -- -- 75
2020-11-17 22:00:00 18.2 3 Sudeste 7 Sudeste 0 -- -- 77
2020-11-17 21:00:00 18.5 4 Sudeste 7 Sudeste 0 -- -- 76
2020-11-17 20:00:00 19.1 2 Este 3 Nordeste 0 -- -- 71
2020-11-17 19:00:00 20.2 0 Calma 6 Oeste 0 -- -- 67
2020-11-17 18:00:00 22 4 Oeste 12 Oeste 0 -- -- 61
2020-11-17 17:00:00 23.6 8 Oeste 14 Oeste 0 -- -- 56
2020-11-17 16:00:00 23.8 8 Noroeste 15 Oeste 0 -- -- 54
2020-11-17 15:00:00 23.6 9 Oeste 16 Oeste 0 -- -- 55
2020-11-17 14:00:00 23.1 9 Oeste 15 Oeste 0 -- -- 57
2020-11-17 13:00:00 22.4 6 Oeste 12 Oeste 0 -- -- 61
2020-11-17 12:00:00 21.1 8 Oeste 11 Oeste 0 -- -- 66
2020-11-17 11:00:00 19.4 6 Noroeste 18 Este 0 -- -- 72
2020-11-17 10:00:00 17.8 13 Sudeste 29 Sudeste 0 -- -- 72
2020-11-17 09:00:00 16.1 17 Sudeste 28 Sudeste 0 -- -- 78
2020-11-17 08:00:00 15.8 16 Este 27 Este 0 -- -- 78
2020-11-17 07:00:00 16.1 6 Este 13 Sudeste 0 -- -- 86
2020-11-17 06:00:00 16 0 Calma 13 Sudeste 0 -- -- 86
2020-11-17 05:00:00 16.3 6 Sudeste 13 Sudeste 0 -- -- 86
2020-11-17 04:00:00 16.1 3 Norte 10 Este 0 -- -- 87
2020-11-17 03:00:00 16.9 6 Este 14 Este 0 -- -- 85
2020-11-17 02:00:00 17.1 6 Sudeste 9 Sudeste 0 -- -- 86
2020-11-17 01:00:00 17.1 3 Este 6 Sudeste 0 -- -- 86
2020-11-17 00:00:00 16.9 4 Este 6 Sudeste 0 -- -- 86
2020-11-16 23:00:00 17.2 3 Este 3 Este 0 -- -- 85
2020-11-16 22:00:00 17.6 2 Este 6 Sudeste 0 -- -- 83
2020-11-16 21:00:00 18.2 0 Calma 6 Sudeste 0 -- -- 82
2020-11-16 20:00:00 18.6 4 Sur 5 Sur 0 -- -- 81
2020-11-16 19:00:00 19.4 0 Calma 6 Norte 0 -- -- 78
2020-11-16 18:00:00 20.7 4 Norte 12 Noroeste 0 -- -- 73
2020-11-16 17:00:00 21.9 6 Noroeste 16 Oeste 0 -- -- 68
2020-11-16 16:00:00 22.5 11 Noroeste 18 Noroeste 0 -- -- 64
2020-11-16 15:00:00 22.3 11 Oeste 17 Sudoeste 0 -- -- 65
2020-11-16 14:00:00 21.3 5 Noroeste 15 Noroeste 0 -- -- 70
2020-11-16 13:00:00 20.1 6 Noroeste 14 Norte 0 -- -- 73
2020-11-16 12:00:00 19.3 5 Norte 12 Norte 0 -- -- 74
2020-11-16 11:00:00 18.9 4 Noroeste 8 Noroeste 0 -- -- 75
2020-11-16 10:00:00 18.4 2 Oeste 5 Sudoeste 0 -- -- 73
2020-11-16 09:00:00 16.6 4 Sudeste 10 Sudeste 0 -- -- 79
2020-11-16 08:00:00 15.7 7 Sudeste 11 Sudeste 0 -- -- 82
2020-11-16 07:00:00 15.9 7 Sudeste 8 Sudeste 0 -- -- 84
2020-11-16 06:00:00 16.4 4 Sudeste 10 Sur 0 -- -- 84
2020-11-16 05:00:00 16.4 8 Sudeste 12 Sudeste 0 -- -- 78
2020-11-16 04:00:00 16.9 4 Sur 7 Sudoeste 0 -- -- 75
2020-11-16 03:00:00 17.8 4 Sudoeste 8 Sudoeste 0 -- -- 70
2020-11-16 02:00:00 19 4 Nordeste 15 Sur 0 -- -- 60
2020-11-16 01:00:00 19.3 6 Sudeste 11 Sudeste 0 -- -- 59
2020-11-16 00:00:00 19.7 0 Calma 11 Sudeste 0 -- -- 61
2020-11-15 23:00:00 20.3 9 Sudeste 11 Sudeste 0 -- -- 59
2020-11-15 22:00:00 20.2 6 Sudeste 9 Sudeste 0 -- -- 66
2020-11-15 21:00:00 20.6 7 Sudeste 8 Sudeste 0 -- -- 67
2020-11-15 20:00:00 21.4 6 Sudeste 10 Sudeste 0 -- -- 65
2020-11-15 19:00:00 22 4 Sudeste 6 Este 0 -- -- 63
2020-11-15 18:00:00 24.1 2 Noroeste 13 Oeste 0 -- -- 55
2020-11-15 17:00:00 24.9 5 Noroeste 13 Oeste 0 -- -- 53
2020-11-15 16:00:00 24.9 8 Oeste 15 Oeste 0 -- -- 53
2020-11-15 15:00:00 24.3 8 Oeste 14 Noroeste 0 -- -- 54
2020-11-15 14:00:00 24.4 5 Oeste 14 Noroeste 0 -- -- 55
2020-11-15 13:00:00 24.1 5 Oeste 13 Oeste 0 -- -- 54
2020-11-15 12:00:00 23.2 4 Este 15 Sudeste 0 -- -- 58
2020-11-15 11:00:00 21.2 8 Sudeste 19 Este 0 -- -- 65
2020-11-15 10:00:00 19.2 12 Sudeste 18 Sudeste 0 -- -- 67
2020-11-15 09:00:00 17.4 13 Sudeste 23 Sudeste 0 -- -- 73
2020-11-15 08:00:00 16.9 12 Sudeste 22 Este 0 -- -- 75
2020-11-15 07:00:00 16.9 9 Sudeste 22 Este 0 -- -- 78
2020-11-15 06:00:00 16.3 7 Sudeste 20 Sudeste 0 -- -- 83
2020-11-15 05:00:00 15.8 10 Sudeste 23 Sudeste 0 -- -- 86
2020-11-15 04:00:00 15.9 12 Sudeste 23 Este 0 -- -- 86
2020-11-15 03:00:00 16.3 9 Sudeste 18 Este 0 -- -- 84
2020-11-15 02:00:00 16.8 8 Este 13 Este 0 -- -- 84
2020-11-15 01:00:00 17 2 Sudeste 4 Nordeste 0 -- -- 85
2020-11-15 00:00:00 16.8 0 Calma 6 Sudeste 0 -- -- 85
2020-11-14 23:00:00 17 6 Sudeste 10 Sudeste 0 -- -- 85
2020-11-14 22:00:00 17.3 4 Sur 9 Sudoeste 0 -- -- 85
2020-11-14 21:00:00 17.2 4 Sur 11 Sudoeste 0 -- -- 84
2020-11-14 20:00:00 17.3 5 Sur 8 Sur 0 -- -- 83
2020-11-14 19:00:00 18 3 Sudoeste 12 Sudoeste 0 -- -- 80
2020-11-14 18:00:00 18.7 10 Oeste 26 Oeste 0 -- -- 77
2020-11-14 17:00:00 19.4 12 Oeste 27 Oeste 0 -- -- 75
2020-11-14 16:00:00 19.6 18 Oeste 28 Sudoeste 0 -- -- 72
2020-11-14 15:00:00 19.5 15 Oeste 22 Oeste 0 -- -- 74
2020-11-14 14:00:00 19.3 9 Sudoeste 17 Oeste 0 -- -- 78
2020-11-14 13:00:00 17.9 6 Sudeste 11 Sur 0 -- -- 82
2020-11-14 12:00:00 17.8 6 Oeste 10 Sudeste 0.2 -- -- 83
2020-11-14 11:00:00 17.3 6 Sudeste 14 Este 0 -- -- 81
2020-11-14 10:00:00 17.1 3 Sudeste 14 Sudeste 0 -- -- 80
2020-11-14 09:00:00 16.4 9 Sudeste 17 Sudeste 0 -- -- 81
2020-11-14 08:00:00 16.3 10 Sudeste 16 Sudeste 0 -- -- 81
2020-11-14 07:00:00 16.3 8 Sudeste 14 Sur 0 -- -- 81
2020-11-14 06:00:00 16.8 2 Sudeste 5 Sudeste 0.2 -- -- 78
2020-11-14 05:00:00 16.9 4 Sur 8 Sur 0 -- -- 76
2020-11-14 04:00:00 17 5 Sur 12 Sur 0 -- -- 75
2020-11-14 03:00:00 16.9 0 Calma 5 Norte 0 -- -- 77
2020-11-14 02:00:00 17.3 0 Calma 5 Este 0 -- -- 74
2020-11-14 01:00:00 17.7 5 Oeste 17 Sudeste 0 -- -- 76
2020-11-14 00:00:00 17.8 10 Sudeste 17 Sudeste 0 -- -- 74
2020-11-13 23:00:00 18.7 4 Sur 14 Sudeste 0 -- -- 70
2020-11-13 22:00:00 18.6 6 Sudeste 13 Sudeste 0 -- -- 70
2020-11-13 21:00:00 18.4 8 Sudeste 17 Este 0 -- -- 73
2020-11-13 20:00:00 19.2 6 Sudeste 12 Sudeste 0 -- -- 68
2020-11-13 19:00:00 19.9 3 Sur 9 Sudoeste 0 -- -- 60
2020-11-13 18:00:00 20.3 6 Oeste 11 Oeste 0 -- -- 62
2020-11-13 17:00:00 21.6 6 Noroeste 14 Oeste 0 -- -- 53
2020-11-13 16:00:00 22.3 3 Norte 8 Norte 0 -- -- 50
2020-11-13 15:00:00 22.1 4 Noroeste 11 Noroeste 0 -- -- 52
2020-11-13 14:00:00 21.7 3 Este 11 Noroeste 0 -- -- 53
2020-11-13 13:00:00 20.8 5 Noroeste 9 Noroeste 0 -- -- 58
2020-11-13 12:00:00 19.5 3 Noroeste 8 Noroeste 0 -- -- 67
2020-11-13 11:00:00 17.4 5 Noroeste 11 Sudeste 0 -- -- 74
2020-11-13 10:00:00 17.7 8 Sudeste 18 Sudeste 0 -- -- 71
2020-11-13 09:00:00 15.6 14 Sudeste 22 Este 0 -- -- 80
2020-11-13 08:00:00 15.4 10 Sudeste 19 Este 0 -- -- 79
2020-11-13 07:00:00 15.7 12 Sudeste 23 Este 0 -- -- 77
2020-11-13 06:00:00 15.8 14 Sudeste 23 Este 0 -- -- 78
2020-11-13 05:00:00 15.6 13 Sudeste 24 Este 0 -- -- 77
2020-11-13 04:00:00 15.6 12 Sudeste 29 Sudeste 0 -- -- 77
2020-11-13 03:00:00 15.6 12 Sudeste 23 Sudeste 0 -- -- 76
2020-11-13 02:00:00 15.7 10 Sudeste 24 Sudeste 0 -- -- 76
2020-11-13 01:00:00 15.8 10 Sudeste 19 Sudeste 0 -- -- 70
2020-11-13 00:00:00 15.9 10 Sudeste 27 Sudeste 0 -- -- 70
2020-11-12 23:00:00 16.1 12 Sudeste 26 Sudeste 0 -- -- 72
2020-11-12 22:00:00 16.1 13 Sudeste 26 Sudeste 0 -- -- 74
2020-11-12 21:00:00 16.2 14 Sudeste 28 Sudeste 0 -- -- 74
2020-11-12 20:00:00 16.7 13 Sudeste 27 Este 0 -- -- 69
2020-11-12 19:00:00 17.5 13 Sudeste 28 Sudeste 0 -- -- 66
2020-11-12 18:00:00 18.4 18 Sudeste 38 Sudeste 0 -- -- 63
2020-11-12 17:00:00 19.2 20 Sudeste 35 Sudeste 0 -- -- 61
2020-11-12 16:00:00 20.6 15 Sudeste 33 Sudeste 0 -- -- 55
2020-11-12 15:00:00 20.4 20 Sudeste 35 Sudeste 0 -- -- 56
2020-11-12 14:00:00 18.9 20 Sudeste 36 Sudeste 0 -- -- 62
2020-11-12 13:00:00 19.1 19 Sudeste 36 Sudeste 0 -- -- 62
2020-11-12 12:00:00 18.1 17 Sudeste 41 Sudeste 0 -- -- 65
2020-11-12 11:00:00 17 18 Sudeste 48 Sudeste 0 -- -- 67
2020-11-12 10:00:00 16.1 18 Sudeste 37 Este 0 -- -- 71
2020-11-12 09:00:00 15.1 19 Sudeste 34 Este 0 -- -- 76
2020-11-12 08:00:00 14.3 14 Este 34 Este 0 -- -- 80
2020-11-12 07:00:00 14.5 15 Este 27 Este 0 -- -- 77
2020-11-12 06:00:00 14.5 13 Este 30 Sudeste 0 -- -- 77
2020-11-12 05:00:00 14.9 15 Este 35 Sudeste 0 -- -- 75
2020-11-12 04:00:00 15.6 18 Sudeste 40 Sudeste 0 -- -- 71
2020-11-12 03:00:00 15.7 21 Sudeste 41 Sudeste 0 -- -- 72
2020-11-12 02:00:00 15.3 17 Sudeste 32 Este 0 -- -- 77
2020-11-12 01:00:00 15.2 14 Este 27 Sudeste 0 -- -- 78
2020-11-12 00:00:00 15.4 14 Sudeste 31 Sudeste 0 -- -- 78
2020-11-11 23:00:00 15.5 15 Sudeste 28 Sudeste 0 -- -- 76
2020-11-11 22:00:00 15.5 14 Sudeste 30 Sudeste 0 -- -- 76
2020-11-11 21:00:00 15.9 17 Sudeste 29 Sudeste 0 -- -- 74
2020-11-11 20:00:00 16.4 14 Sudeste 29 Sur 0 -- -- 72
2020-11-11 19:00:00 17 15 Sudeste 33 Sudeste 0 -- -- 66
2020-11-11 18:00:00 18 19 Sudeste 34 Sudeste 0 -- -- 61
2020-11-11 17:00:00 19.3 13 Sudeste 37 Sudeste 0 -- -- 58
2020-11-11 16:00:00 20.4 19 Sudeste 44 Sudeste 0 -- -- 54
2020-11-11 15:00:00 20.4 22 Sudeste 46 Sudeste 0 -- -- 53
2020-11-11 14:00:00 19.7 22 Sudeste 44 Sudeste 0 -- -- 57
2020-11-11 13:00:00 19.2 25 Sudeste 49 Sudeste 0 -- -- 59
2020-11-11 12:00:00 18.6 27 Sudeste 53 Sudeste 0 -- -- 61
2020-11-11 11:00:00 17.9 23 Sudeste 48 Sudeste 0 -- -- 65
2020-11-11 10:00:00 17.2 23 Sudeste 45 Sudeste 0 -- -- 68
2020-11-11 09:00:00 15.9 14 Sudeste 30 Sudeste 0 -- -- 73
2020-11-11 08:00:00 14.9 13 Sudeste 36 Este 0 -- -- 78
2020-11-11 07:00:00 15.2 18 Sudeste 37 Sudeste 0 -- -- 78
2020-11-11 06:00:00 15.3 19 Sudeste 39 Sudeste 0 -- -- 77
2020-11-11 05:00:00 15.6 21 Sudeste 43 Sudeste 0 -- -- 76
2020-11-11 04:00:00 15.8 19 Sudeste 39 Sudeste 0 -- -- 75
2020-11-11 03:00:00 15.6 15 Sudeste 32 Sudeste 0 -- -- 77
2020-11-11 02:00:00 15.3 17 Sudeste 40 Sudeste 0 -- -- 78
2020-11-11 01:00:00 15.4 12 Sudeste 23 Sudeste 0 -- -- 77
2020-11-11 00:00:00 15.9 12 Sudeste 21 Sudeste 0 -- -- 71
2020-11-10 23:00:00 16.2 12 Sudeste 21 Sudeste 0 -- -- 68
2020-11-10 22:00:00 16.5 12 Sudeste 21 Sudeste 0 -- -- 67
2020-11-10 21:00:00 16.5 10 Sudeste 21 Sudeste 0 -- -- 65
2020-11-10 20:00:00 17.7 9 Sudeste 18 Sudeste 0 -- -- 65
2020-11-10 19:00:00 18.4 10 Este 15 Este 0 -- -- 63
2020-11-10 18:00:00 19.2 7 Nordeste 16 Nordeste 0 -- -- 67
2020-11-10 17:00:00 20 8 Nordeste 18 Nordeste 0 -- -- 64
2020-11-10 16:00:00 20 10 Nordeste 16 Norte 0 -- -- 65
2020-11-10 15:00:00 19.4 8 Nordeste 18 Nordeste 0 -- -- 68
2020-11-10 14:00:00 17.6 8 Nordeste 19 Este 0 -- -- 76
2020-11-10 13:00:00 16.7 9 Nordeste 16 Norte 0 -- -- 77
2020-11-10 12:00:00 16.1 10 Norte 15 Norte 0 -- -- 79
2020-11-10 11:00:00 15.1 9 Noroeste 13 Noroeste 0 -- -- 84
2020-11-10 10:00:00 13.3 0 Calma 3 Noroeste 0 -- -- 89
2020-11-10 09:00:00 11.8 0 Calma 7 Norte 0 -- -- 91
2020-11-10 08:00:00 11.7 2 Norte 6 Norte 0 -- -- 92
2020-11-10 07:00:00 11.4 0 Calma 2 Sudeste 0 -- -- 90
2020-11-10 06:00:00 11.5 0 Calma 3 Sudeste 0 -- -- 89
2020-11-10 05:00:00 12.4 0 Calma 7 Sudeste 0 -- -- 85
2020-11-10 04:00:00 13.8 6 Sudeste 10 Sudeste 0 -- -- 85
2020-11-10 03:00:00 14 3 Este 9 Sudeste 0 -- -- 85
2020-11-10 02:00:00 14.2 5 Sudeste 9 Sudeste 0 -- -- 84
2020-11-10 01:00:00 14 6 Sudeste 13 Sudeste 0 -- -- 84
2020-11-10 00:00:00 14.3 2 Este 9 Sudeste 0 -- -- 84
2020-11-09 23:00:00 14.3 2 Este 6 Sudeste 0 -- -- 84
2020-11-09 22:00:00 14.7 2 Sudeste 5 Sudeste 0 -- -- 82
2020-11-09 21:00:00 14.9 3 Sudeste 4 Sudeste 0 -- -- 82
2020-11-09 20:00:00 15.7 4 Sudeste 7 Sudeste 0 -- -- 79
2020-11-09 19:00:00 16.7 0 Calma 2 Norte 0 -- -- 76
2020-11-09 18:00:00 18.2 3 Noroeste 9 Norte 0 -- -- 67
2020-11-09 17:00:00 18.8 5 Noroeste 11 Noroeste 0 -- -- 66
2020-11-09 16:00:00 18.7 5 Norte 13 Noroeste 0 -- -- 71
2020-11-09 15:00:00 18.1 6 Noroeste 14 Norte 0 -- -- 72
2020-11-09 14:00:00 17.8 4 Noroeste 15 Noroeste 0 -- -- 73
2020-11-09 13:00:00 17.4 5 Noroeste 15 Este 0 -- -- 73
2020-11-09 12:00:00 16.5 7 Sudeste 17 Este 0 -- -- 74
2020-11-09 11:00:00 15.8 4 Este 7 Sudeste 0 -- -- 81
2020-11-09 10:00:00 15 2 Este 8 Sur 0 -- -- 83
2020-11-09 09:00:00 14.6 7 Sur 15 Sur 0 -- -- 82
2020-11-09 08:00:00 14.4 0 Calma 6 Sudeste 0 -- -- 79
2020-11-09 07:00:00 13.8 0 Calma 10 Sudeste 0 -- -- 78
2020-11-09 06:00:00 14.3 7 Sudeste 12 Sudeste 0 -- -- 75
2020-11-09 05:00:00 14.9 8 Este 14 Sudeste 0 -- -- 72
2020-11-09 04:00:00 14.7 5 Sudeste 8 Sudeste 0 -- -- 78
2020-11-09 03:00:00 14.7 3 Este 6 Sudeste 0 -- -- 83
2020-11-09 02:00:00 14.7 0 Calma 4 Sudeste 0 -- -- 83
2020-11-09 01:00:00 15.2 3 Sudeste 9 Sudeste 0 -- -- 82
2020-11-09 00:00:00 15.5 5 Sudeste 7 Sudeste 0 -- -- 81
2020-11-08 23:00:00 16.1 3 Sudoeste 8 Sudoeste 0 -- -- 79
2020-11-08 22:00:00 16.3 3 Sur 7 Sur 0 -- -- 79
2020-11-08 21:00:00 16.7 5 Sur 13 Sudoeste 0 -- -- 78
2020-11-08 20:00:00 17.5 4 Sudeste 6 Sudeste 0 -- -- 76
2020-11-08 19:00:00 18.5 0 Calma 5 Este 0 -- -- 70
2020-11-08 18:00:00 19.5 3 Nordeste 8 Norte 0 -- -- 65
2020-11-08 17:00:00 20.4 4 Norte 12 Noroeste 0 -- -- 63
2020-11-08 16:00:00 20.8 10 Noroeste 18 Noroeste 0 -- -- 61
2020-11-08 15:00:00 21.1 6 Noroeste 17 Noroeste 0 -- -- 60
2020-11-08 14:00:00 20.8 6 Noroeste 12 Noroeste 0 -- -- 59
2020-11-08 13:00:00 20.8 9 Sudoeste 16 Sudeste 0 -- -- 55
2020-11-08 12:00:00 20.6 9 Oeste 17 Oeste 0 -- -- 55
2020-11-08 11:00:00 19.1 3 Noroeste 11 Sur 0 -- -- 64
2020-11-08 10:00:00 17.5 8 Sudeste 14 Sudeste 0 -- -- 64
2020-11-08 09:00:00 15.4 9 Sudeste 17 Sudeste 0 -- -- 70
2020-11-08 08:00:00 14.6 9 Sudeste 13 Este 0 -- -- 73
2020-11-08 07:00:00 13.6 4 Nordeste 9 Este 0 -- -- 80
2020-11-08 06:00:00 14.9 4 Este 13 Sudeste 0 -- -- 75
2020-11-08 05:00:00 15.2 10 Sudeste 19 Sudeste 0 -- -- 77
2020-11-08 04:00:00 15.1 10 Sudeste 15 Sudeste 0 -- -- 77
2020-11-08 03:00:00 15.1 9 Sudeste 15 Sudeste 0 -- -- 78
2020-11-08 02:00:00 14.6 4 Sudeste 9 Este 0 -- -- 81
2020-11-08 01:00:00 15 6 Sudeste 13 Sudeste 0 -- -- 79
2020-11-08 00:00:00 15.4 8 Sudeste 12 Sudeste 0 -- -- 76
2020-11-07 23:00:00 15.4 6 Sudeste 11 Sudeste 0 -- -- 75
2020-11-07 22:00:00 15.6 7 Sudeste 11 Este 0 -- -- 75
2020-11-07 21:00:00 16 7 Sudeste 12 Sudeste 0 -- -- 74
2020-11-07 20:00:00 16.4 5 Sudeste 8 Sudeste 0 -- -- 74
2020-11-07 19:00:00 17.3 3 Oeste 6 Oeste 0 -- -- 74
2020-11-07 18:00:00 18.8 6 Oeste 19 Oeste 0 -- -- 70
2020-11-07 17:00:00 19.9 15 Oeste 26 Oeste 0 -- -- 62
2020-11-07 16:00:00 20.1 17 Oeste 27 Oeste 0 -- -- 62
2020-11-07 15:00:00 19.4 17 Oeste 28 Oeste 0 -- -- 68
2020-11-07 14:00:00 18.8 15 Oeste 24 Oeste 0 -- -- 70
2020-11-07 13:00:00 17.8 12 Oeste 23 Oeste 0 -- -- 72
2020-11-07 12:00:00 17.5 14 Oeste 27 Oeste 0 -- -- 75
2020-11-07 11:00:00 17.5 21 Oeste 36 Sudoeste 0 -- -- 75
2020-11-07 10:00:00 16.3 14 Sudoeste 30 Oeste 0 -- -- 82
2020-11-07 09:00:00 15.2 13 Sudoeste 23 Sudoeste 0 -- -- 84
2020-11-07 08:00:00 14.4 10 Sudoeste 31 Sudoeste 0.2 -- -- 88
2020-11-07 07:00:00 14.6 18 Sudoeste 33 Sudoeste 1.2 -- -- 86
2020-11-07 06:00:00 15.7 6 Sudoeste 16 Sudoeste 0 -- -- 75
2020-11-07 05:00:00 15.1 5 Sur 24 Sudeste 0.2 -- -- 79
2020-11-07 04:00:00 15.1 9 Sur 27 Sudoeste 0.2 -- -- 76
2020-11-07 03:00:00 13.6 14 Sudoeste 42 Oeste 4.2 -- -- 81
2020-11-07 02:00:00 17 7 Sur 23 Sudeste 0 -- -- 68
2020-11-07 01:00:00 17.3 12 Sudeste 22 Sur 0 -- -- 68
2020-11-07 00:00:00 17.7 13 Sudeste 26 Sudeste 0 -- -- 65
2020-11-06 23:00:00 17.5 17 Sudeste 38 Sudeste 0 -- -- 67
2020-11-06 22:00:00 17.3 22 Sudeste 39 Sudeste 1 -- -- 68
2020-11-06 21:00:00 18.1 14 Sur 30 Sudeste 1.2 -- -- 65
2020-11-06 20:00:00 19.2 7 Oeste 19 Oeste 0 -- -- 70
2020-11-06 19:00:00 20.7 9 Oeste 35 Sur 0 -- -- 63
2020-11-06 18:00:00 22.3 4 Sudeste 15 Sudoeste 0 -- -- 47
2020-11-06 17:00:00 22.6 10 Oeste 22 Sudeste 0 -- -- 59
2020-11-06 16:00:00 24.1 14 Sudoeste 37 Sur 0 -- -- 51
2020-11-06 15:00:00 25.6 21 Sur 53 Sudeste 0 -- -- 34
2020-11-06 14:00:00 25.1 28 Sudeste 59 Sudeste 0 -- -- 36
2020-11-06 13:00:00 24.8 33 Sudeste 60 Sudeste 0 -- -- 37
2020-11-06 12:00:00 24.3 23 Sudeste 50 Sudeste 0 -- -- 39
2020-11-06 11:00:00 23.7 31 Sudeste 55 Sudeste 0 -- -- 40
2020-11-06 10:00:00 22.2 25 Sudeste 51 Sudeste 0 -- -- 43
2020-11-06 09:00:00 21.1 30 Sudeste 59 Sudeste 0 -- -- 46
2020-11-06 08:00:00 20.9 27 Sudeste 51 Sudeste 0 -- -- 44
2020-11-06 07:00:00 20.7 23 Sudeste 44 Sudeste 0 -- -- 44
2020-11-06 06:00:00 17.9 9 Este 24 Este 0 -- -- 54
2020-11-06 05:00:00 16.4 8 Este 26 Sudeste 0 -- -- 63
2020-11-06 04:00:00 16.3 5 Sur 18 Este 0 -- -- 68
2020-11-06 03:00:00 18.3 9 Este 16 Este 0 -- -- 56
2020-11-06 02:00:00 18.7 4 Sudeste 10 Sudeste 0 -- -- 54
2020-11-06 01:00:00 18.2 4 Sudeste 21 Sur 0 -- -- 58
2020-11-06 00:00:00 19.3 16 Sudeste 29 Sudeste 0 -- -- 53
2020-11-05 23:00:00 18 13 Sudeste 30 Sudeste 0 -- -- 61
2020-11-05 22:00:00 18.6 15 Sudeste 37 Sudeste 0 -- -- 58
2020-11-05 21:00:00 18.7 20 Sudeste 43 Sudeste 0 -- -- 59
2020-11-05 20:00:00 18.5 20 Sudeste 44 Sudeste 0 -- -- 61
2020-11-05 19:00:00 18.3 21 Sudeste 45 Sudeste 0 -- -- 65
2020-11-05 18:00:00 18.6 21 Sudeste 51 Sudeste 0 -- -- 67
2020-11-05 17:00:00 19.3 25 Sudeste 47 Sudeste 0 -- -- 67
2020-11-05 16:00:00 18.6 16 Este 35 Este 0 -- -- 75
2020-11-05 15:00:00 17.3 13 Este 30 Este 0 -- -- 82
2020-11-05 14:00:00 15.5 6 Sur 26 Sudeste 4.8 -- -- 87
2020-11-05 13:00:00 14.1 8 Este 22 Este 9.8 -- -- 90
2020-11-05 12:00:00 14.1 4 Nordeste 19 Oeste 3.8 -- -- 92
2020-11-05 11:00:00 14.9 4 Oeste 14 Oeste 1.6 -- -- 90
2020-11-05 10:00:00 15.8 3 Nordeste 19 Este 0 -- -- 85
2020-11-05 09:00:00 15.2 8 Este 16 Este 0 -- -- 84
2020-11-05 08:00:00 14.3 4 Este 12 Nordeste 0.2 -- -- 89
2020-11-05 07:00:00 15.1 13 Oeste 27 Sudeste 0 -- -- 84
2020-11-05 06:00:00 16.4 12 Sur 28 Sudeste 0 -- -- 77
2020-11-05 05:00:00 15.6 12 Sudeste 26 Sudeste 0 -- -- 82
2020-11-05 04:00:00 14.5 7 Sudeste 24 Sudeste 0 -- -- 92
2020-11-05 03:00:00 14.7 9 Nordeste 36 Este 5 -- -- 88
2020-11-05 02:00:00 14.8 7 Nordeste 18 Este 9.6 -- -- 90
2020-11-05 01:00:00 15.5 4 Sur 40 Sudeste 5 -- -- 85
2020-11-05 00:00:00 16.7 20 Sudeste 49 Sudeste 0 -- -- 76
2020-11-04 23:00:00 17 23 Sudeste 51 Sudeste 0 -- -- 71
2020-11-04 22:00:00 16.8 25 Sudeste 48 Sudeste 0 -- -- 71
2020-11-04 21:00:00 16.2 19 Sudeste 40 Sudeste 0 -- -- 73
2020-11-04 20:00:00 16.5 21 Sudeste 42 Sudeste 0 -- -- 70
2020-11-04 19:00:00 16.8 17 Sudeste 33 Sudeste 0 -- -- 68
2020-11-04 18:00:00 17.1 16 Sudeste 36 Sudeste 0 -- -- 60
2020-11-04 17:00:00 17.9 15 Sudeste 37 Sudeste 0 -- -- 63
2020-11-04 16:00:00 19 19 Sudeste 34 Sudeste 0 -- -- 60
2020-11-04 15:00:00 19.5 15 Sudeste 32 Sur 0 -- -- 59
2020-11-04 14:00:00 19.5 16 Sudeste 28 Sudeste 0 -- -- 60
2020-11-04 13:00:00 19.6 9 Sur 18 Sudoeste 0 -- -- 60
2020-11-04 12:00:00 18.1 7 Sudeste 15 Sur 0 -- -- 65
2020-11-04 11:00:00 16.8 3 Nordeste 8 Norte 0 -- -- 75
2020-11-04 10:00:00 16.2 4 Oeste 7 Sudoeste 0 -- -- 79
2020-11-04 09:00:00 15.6 2 Sudoeste 9 Noroeste 0 -- -- 80
2020-11-04 08:00:00 16.4 5 Oeste 14 Sudoeste 0 -- -- 69
2020-11-04 07:00:00 16.4 6 Oeste 23 Sudeste 0 -- -- 68
2020-11-04 06:00:00 16.7 16 Sudeste 29 Sudeste 0 -- -- 66
2020-11-04 05:00:00 16.4 16 Sudeste 32 Este 0 -- -- 69
2020-11-04 04:00:00 16.4 14 Sudeste 27 Sudeste 0 -- -- 67
2020-11-04 03:00:00 16.6 15 Sudeste 27 Sudeste 0 -- -- 66
2020-11-04 02:00:00 17.9 9 Sudeste 15 Sudeste 0 -- -- 62
2020-11-04 01:00:00 18.4 0 Calma 5 Sudeste 0 -- -- 72
2020-11-04 00:00:00 18.5 4 Sudeste 6 Sur 0 -- -- 72
2020-11-03 23:00:00 19 0 Calma 6 Nordeste 0 -- -- 69
2020-11-03 22:00:00 19.3 3 Nordeste 9 Nordeste 0 -- -- 69
2020-11-03 21:00:00 19.9 0 Calma 5 Sudoeste 0 -- -- 71
2020-11-03 20:00:00 20.6 3 Oeste 7 Noroeste 0 -- -- 69
2020-11-03 19:00:00 21.3 3 Noroeste 8 Noroeste 0 -- -- 61
2020-11-03 18:00:00 22.2 7 Noroeste 15 Norte 0 -- -- 53
2020-11-03 17:00:00 23.4 12 Noroeste 19 Noroeste 0 -- -- 47
2020-11-03 16:00:00 24.5 9 Norte 16 Nordeste 0 -- -- 43
2020-11-03 15:00:00 24.4 8 Noroeste 15 Nordeste 0 -- -- 43
2020-11-03 14:00:00 23.3 4 Norte 12 Norte 0 -- -- 43
2020-11-03 13:00:00 22.1 6 Norte 12 Noroeste 0 -- -- 45
2020-11-03 12:00:00 21.7 4 Norte 10 Norte 0 -- -- 48
2020-11-03 11:00:00 20.2 2 Oeste 9 Nordeste 0 -- -- 54
2020-11-03 10:00:00 16.5 3 Oeste 14 Noroeste 0 -- -- 66
2020-11-03 09:00:00 14.9 3 Noroeste 9 Oeste 0 -- -- 68
2020-11-03 08:00:00 15.5 2 Este 12 Sudeste 0 -- -- 67
2020-11-03 07:00:00 15.4 8 Sudeste 10 Este 0 -- -- 68
2020-11-03 06:00:00 15.6 3 Sudeste 8 Sudeste 0 -- -- 67
2020-11-03 05:00:00 15.8 3 Este 9 Sur 0 -- -- 62
2020-11-03 04:00:00 16.5 0 Calma 4 Sudeste 0 -- -- 58
2020-11-03 03:00:00 17.3 5 Sudeste 7 Sudeste 0 -- -- 55
2020-11-03 02:00:00 17.6 3 Sur 6 Sudeste 0 -- -- 54
2020-11-03 01:00:00 18.3 4 Sudeste 5 Sur 0 -- -- 51
2020-11-03 00:00:00 19.1 5 Sudeste 7 Sudeste 0 -- -- 48
2020-11-02 23:00:00 19.3 2 Sudeste 12 Norte 0 -- -- 48
2020-11-02 22:00:00 21.2 6 Sudeste 8 Sudeste 0 -- -- 43
2020-11-02 21:00:00 21.6 5 Sudeste 8 Sudeste 0 -- -- 41
2020-11-02 20:00:00 22.7 4 Sur 7 Sudeste 0 -- -- 39
2020-11-02 19:00:00 24 3 Sur 7 Sur 0 -- -- 37
2020-11-02 18:00:00 26.9 6 Oeste 15 Oeste 0 -- -- 33
2020-11-02 17:00:00 28.5 5 Norte 13 Noroeste 0 -- -- 26
2020-11-02 16:00:00 28.6 8 Noroeste 21 Oeste 0 -- -- 26
2020-11-02 15:00:00 28.9 10 Noroeste 18 Oeste 0 -- -- 25
2020-11-02 14:00:00 28.5 8 Sudoeste 15 Sudoeste 0 -- -- 26
2020-11-02 13:00:00 27.6 9 Sudeste 18 Sudeste 0 -- -- 25
2020-11-02 12:00:00 26 9 Sudeste 18 Este 0 -- -- 28
2020-11-02 11:00:00 23.3 8 Este 19 Este 0 -- -- 40
2020-11-02 10:00:00 21.7 9 Este 18 Este 0 -- -- 40
2020-11-02 09:00:00 19.9 10 Este 19 Este 0 -- -- 42
2020-11-02 08:00:00 18.6 12 Este 26 Este 0 -- -- 46
2020-11-02 07:00:00 18.5 12 Este 25 Este 0 -- -- 46
2020-11-02 06:00:00 18 13 Este 23 Sudeste 0 -- -- 48
2020-11-02 05:00:00 18.9 11 Sudeste 21 Este 0 -- -- 45
2020-11-02 04:00:00 19.1 10 Este 17 Sudeste 0 -- -- 45
2020-11-02 03:00:00 19.8 9 Este 21 Este 0 -- -- 43
2020-11-02 02:00:00 19.7 11 Sudeste 17 Sudeste 0 -- -- 42
2020-11-02 01:00:00 19.7 3 Oeste 10 Sudeste 0 -- -- 46
2020-11-02 00:00:00 20.7 5 Este 11 Sudeste 0 -- -- 39
2020-11-01 23:00:00 20.9 8 Sudeste 12 Sudeste 0 -- -- 41
2020-11-01 22:00:00 21.6 6 Este 10 Este 0 -- -- 45
2020-11-01 21:00:00 21.3 0 Calma 7 Este 0 -- -- 48
2020-11-01 20:00:00 22.3 4 Este 7 Este 0 -- -- 45
2020-11-01 19:00:00 23.3 4 Este 6 Este 0 -- -- 43
2020-11-01 18:00:00 25.5 3 Norte 11 Norte 0 -- -- 37
2020-11-01 17:00:00 26.5 5 Norte 14 Nordeste 0 -- -- 35
2020-11-01 16:00:00 26.5 6 Norte 16 Nordeste 0 -- -- 36
2020-11-01 15:00:00 25.7 9 Norte 15 Norte 0 -- -- 38
2020-11-01 14:00:00 24.8 6 Nordeste 14 Norte 0 -- -- 42
2020-11-01 13:00:00 23.7 7 Norte 15 Norte 0 -- -- 47
2020-11-01 12:00:00 22.3 5 Norte 12 Norte 0 -- -- 50
2020-11-01 11:00:00 21 4 Nordeste 12 Norte 0 -- -- 53
2020-11-01 10:00:00 18.4 4 Nordeste 9 Nordeste 0 -- -- 61
2020-11-01 09:00:00 16.4 6 Sudeste 8 Sudeste 0 -- -- 69
2020-11-01 08:00:00 13.2 2 Sur 11 Este 0 -- -- 78
2020-11-01 07:00:00 17.8 6 Este 15 Sudeste 0 -- -- 61
2020-11-01 06:00:00 16.8 3 Nordeste 11 Sudeste 0 -- -- 68
2020-11-01 05:00:00 16.6 3 Este 5 Nordeste 0 -- -- 69
2020-11-01 04:00:00 16.9 3 Este 4 Nordeste 0 -- -- 68
2020-11-01 03:00:00 17.4 0 Calma 9 Sudeste 0 -- -- 67
2020-11-01 02:00:00 18.2 6 Sudeste 10 Este 0 -- -- 63
2020-11-01 01:00:00 18.2 0 Calma 7 Sudeste 0 -- -- 63
2020-11-01 00:00:00 18.8 5 Sudeste 7 Sudeste 0 -- -- 61
2020-10-31 23:00:00 19.3 3 Sur 7 Sur 0 -- -- 58
2020-10-31 22:00:00 19.8 4 Sudeste 7 Sur 0 -- -- 55
2020-10-31 21:00:00 20.2 5 Sur 9 Sudeste 0 -- -- 53
2020-10-31 20:00:00 20.8 4 Sur 9 Sudeste 0 -- -- 51
2020-10-31 19:00:00 22.2 5 Sudoeste 8 Sudoeste 0 -- -- 46
2020-10-31 18:00:00 24.6 6 Sudoeste 13 Oeste 0 -- -- 40
2020-10-31 17:00:00 25.7 8 Oeste 20 Oeste 0 -- -- 36
2020-10-31 16:00:00 25.8 11 Oeste 18 Oeste 0 -- -- 37
2020-10-31 15:00:00 25.5 6 Oeste 13 Noroeste 0 -- -- 38
2020-10-31 14:00:00 24 6 Noroeste 13 Noroeste 0 -- -- 40
2020-10-31 13:00:00 22.9 5 Noroeste 15 Noroeste 0 -- -- 42
2020-10-31 12:00:00 21.7 7 Noroeste 14 Noroeste 0 -- -- 44
2020-10-31 11:00:00 19.9 5 Noroeste 10 Oeste 0 -- -- 48
2020-10-31 10:00:00 18.5 6 Oeste 11 Sur 0 -- -- 51
2020-10-31 09:00:00 16.8 4 Sudeste 10 Sudeste 0 -- -- 53
2020-10-31 08:00:00 16.2 6 Sudeste 13 Sudeste 0 -- -- 53
2020-10-31 07:00:00 16.7 2 Nordeste 20 Este 0 -- -- 52
2020-10-31 06:00:00 19.3 12 Sudeste 27 Este 0 -- -- 43
2020-10-31 05:00:00 18.8 15 Sudeste 24 Sudeste 0 -- -- 44
2020-10-31 04:00:00 19 13 Sudeste 24 Sudeste 0 -- -- 44
2020-10-31 03:00:00 19.1 6 Sudeste 18 Sudeste 0 -- -- 44
2020-10-31 02:00:00 19.7 8 Este 19 Sudeste 0 -- -- 43
2020-10-31 01:00:00 20 12 Sudeste 23 Este 0 -- -- 41
2020-10-31 00:00:00 19.7 10 Sudeste 22 Sudeste 0 -- -- 44
2020-10-30 23:00:00 19.9 13 Sudeste 22 Sudeste 0 -- -- 45
2020-10-30 22:00:00 20.1 14 Sudeste 25 Sudeste 0 -- -- 44
2020-10-30 21:00:00 20.1 15 Sudeste 24 Sudeste 0 -- -- 43
2020-10-30 20:00:00 21.1 17 Sudeste 27 Sudeste 0 -- -- 40
2020-10-30 19:00:00 21.4 12 Sudeste 25 Sudeste 0 -- -- 40
2020-10-30 18:00:00 23 11 Sudeste 23 Sudeste 0 -- -- 35
2020-10-30 17:00:00 24.5 14 Sudeste 33 Sudeste 0 -- -- 32
2020-10-30 16:00:00 25.3 14 Sudeste 32 Sudeste 0 -- -- 32
2020-10-30 15:00:00 25.6 17 Sudeste 30 Sudeste 0 -- -- 32
2020-10-30 14:00:00 25.3 13 Sur 35 Sudeste 0 -- -- 33
2020-10-30 13:00:00 24.8 19 Sudeste 39 Sur 0 -- -- 34
2020-10-30 12:00:00 23.8 20 Sudeste 58 Sudeste 0 -- -- 38
2020-10-30 11:00:00 22.8 25 Sudeste 48 Este 0 -- -- 40
2020-10-30 10:00:00 21.5 15 Sudeste 28 Sudeste 0 -- -- 45
2020-10-30 09:00:00 18.2 13 Este 25 Este 0 -- -- 55
2020-10-30 08:00:00 16.8 13 Este 28 Sudeste 0 -- -- 58
2020-10-30 07:00:00 16.9 11 Sudeste 33 Este 0 -- -- 58
2020-10-30 06:00:00 16.9 11 Sudeste 27 Sudeste 0 -- -- 57
2020-10-30 05:00:00 17.3 14 Sudeste 24 Sudeste 0 -- -- 56
2020-10-30 04:00:00 17.2 9 Este 19 Este 0 -- -- 57
2020-10-30 03:00:00 18.1 12 Este 24 Este 0 -- -- 56
2020-10-30 02:00:00 18.7 16 Sudeste 31 Sudeste 0 -- -- 55
2020-10-30 01:00:00 18.9 18 Sudeste 30 Sudeste 0 -- -- 53
2020-10-30 00:00:00 18.4 5 Sudeste 21 Sudeste 0 -- -- 56
2020-10-29 23:00:00 18.8 10 Sudeste 24 Sudeste 0 -- -- 55
2020-10-29 22:00:00 19.7 14 Sudeste 35 Sudeste 0 -- -- 52
2020-10-29 21:00:00 20.2 20 Sudeste 37 Sudeste 0 -- -- 49
2020-10-29 20:00:00 19.9 13 Sudeste 22 Sudeste 0 -- -- 48
2020-10-29 19:00:00 21 9 Sudeste 21 Este 0 -- -- 45
2020-10-29 18:00:00 22.9 14 Sudeste 35 Sudeste 0 -- -- 40
2020-10-29 17:00:00 24.3 16 Sudeste 32 Sudeste 0 -- -- 36
2020-10-29 16:00:00 25.3 16 Sudeste 33 Sudeste 0 -- -- 32
2020-10-29 15:00:00 25.8 18 Sudeste 36 Sur 0 -- -- 32
2020-10-29 14:00:00 25.2 17 Sudeste 36 Sudeste 0 -- -- 33
2020-10-29 13:00:00 24.8 14 Sudeste 27 Sudeste 0 -- -- 32
2020-10-29 12:00:00 23.8 12 Este 24 Este 0 -- -- 31
2020-10-29 11:00:00 21.8 5 Nordeste 14 Este 0 -- -- 48
2020-10-29 10:00:00 19.4 7 Este 21 Este 0 -- -- 50
2020-10-29 09:00:00 17 12 Este 22 Este 0 -- -- 57
2020-10-29 08:00:00 15.4 12 Este 24 Sudeste 0 -- -- 65
2020-10-29 07:00:00 15.4 11 Sudeste 18 Sudeste 0 -- -- 66
2020-10-29 06:00:00 15 5 Norte 21 Sudeste 0 -- -- 68
2020-10-29 05:00:00 15.5 6 Sudeste 17 Sudeste 0 -- -- 67
2020-10-29 04:00:00 14.4 3 Sur 8 Sudeste 0 -- -- 75
2020-10-29 03:00:00 15.1 2 Sudeste 6 Este 0 -- -- 71
2020-10-29 02:00:00 15.5 0 Calma 9 Este 0 -- -- 69
2020-10-29 01:00:00 17.3 5 Este 10 Este 0 -- -- 63
2020-10-29 00:00:00 16.8 4 Este 10 Este 0 -- -- 66
2020-10-28 23:00:00 17 4 Este 7 Este 0 -- -- 65
2020-10-28 22:00:00 17.4 0 Calma 5 Este 0 -- -- 64
2020-10-28 21:00:00 17.9 5 Este 9 Este 0 -- -- 60
2020-10-28 20:00:00 18.1 2 Este 8 Sudeste 0 -- -- 59
2020-10-28 19:00:00 18.8 4 Este 8 Sudeste 0 -- -- 56
2020-10-28 18:00:00 20.1 3 Este 11 Nordeste 0 -- -- 52
2020-10-28 17:00:00 20.4 5 Nordeste 14 Nordeste 0 -- -- 49
2020-10-28 16:00:00 20.3 6 Nordeste 18 Norte 0 -- -- 49
2020-10-28 15:00:00 19.8 8 Norte 19 Nordeste 0 -- -- 49
2020-10-28 14:00:00 19 8 Norte 19 Nordeste 0 -- -- 52
2020-10-28 13:00:00 18.1 10 Norte 19 Nordeste 0 -- -- 54
2020-10-28 12:00:00 17.3 6 Nordeste 13 Nordeste 0 -- -- 56
2020-10-28 11:00:00 16 5 Nordeste 13 Nordeste 0 -- -- 59
2020-10-28 10:00:00 14.8 4 Norte 13 Este 0 -- -- 66
2020-10-28 09:00:00 13.5 3 Sur 15 Este 0 -- -- 67
2020-10-28 08:00:00 12.2 7 Sudeste 12 Sudeste 0 -- -- 68
2020-10-28 07:00:00 10.5 2 Sudoeste 6 Sur 0 -- -- 73
2020-10-28 06:00:00 11.5 2 Oeste 5 Sudeste 0 -- -- 68
2020-10-28 05:00:00 11.4 2 Sur 5 Sur 0 -- -- 65
2020-10-28 04:00:00 11.5 0 Calma 3 Sur 0 -- -- 66
2020-10-28 03:00:00 12 0 Calma 5 Noroeste 0 -- -- 60
2020-10-28 02:00:00 12.7 0 Calma 5 Sudeste 0 -- -- 59
2020-10-28 01:00:00 13 2 Sudeste 3 Sudeste 0 -- -- 59
2020-10-28 00:00:00 13.8 2 Norte 7 Sudeste 0 -- -- 54
2020-10-27 23:00:00 14.3 3 Este 5 Sudeste 0 -- -- 52
2020-10-27 22:00:00 13.9 3 Este 5 Sudeste 0 -- -- 56
2020-10-27 21:00:00 14.4 3 Sudeste 5 Sur 0 -- -- 57
2020-10-27 20:00:00 15.2 4 Sudeste 6 Sudeste 0 -- -- 55
2020-10-27 19:00:00 16.4 0 Calma 5 Noroeste 0 -- -- 51
2020-10-27 18:00:00 17.9 4 Norte 15 Noroeste 0 -- -- 44
2020-10-27 17:00:00 18.5 8 Noroeste 18 Norte 0 -- -- 43
2020-10-27 16:00:00 18.3 3 Norte 12 Nordeste 0 -- -- 45
2020-10-27 15:00:00 17.8 6 Noroeste 13 Noroeste 0 -- -- 49
2020-10-27 14:00:00 17.1 3 Norte 12 Noroeste 0 -- -- 50
2020-10-27 13:00:00 16.3 5 Noroeste 10 Norte 0 -- -- 52
2020-10-27 12:00:00 15.6 4 Norte 11 Noroeste 0 -- -- 59
2020-10-27 11:00:00 14.4 3 Oeste 6 Oeste 0 -- -- 61
2020-10-27 10:00:00 12.7 0 Calma 6 Oeste 0 -- -- 67
2020-10-27 09:00:00 10.7 0 Calma 4 Noroeste 0 -- -- 71
2020-10-27 08:00:00 9.8 0 Calma 5 Nordeste 0 -- -- 74
2020-10-27 07:00:00 9.8 0 Calma 5 Sudeste 0 -- -- 74
2020-10-27 06:00:00 10.8 5 Sudeste 6 Sudeste 0 -- -- 69
2020-10-27 05:00:00 11 5 Sudeste 6 Sudeste 0 -- -- 68
2020-10-27 04:00:00 10.8 5 Sudeste 6 Sudeste 0 -- -- 70
2020-10-27 03:00:00 11.3 0 Calma 6 Sudeste 0 -- -- 68
2020-10-27 02:00:00 11.5 5 Sudeste 8 Sudeste 0 -- -- 67
2020-10-27 01:00:00 12 5 Este 11 Sudeste 0 -- -- 63
2020-10-27 00:00:00 12 4 Sudeste 8 Sudeste 0 -- -- 66